This is the latest recevied weather packets stored in our database for station/object KB4KY. If no packets are shown the sender has not sent any weather packets the latest 1 day(s).
| Time | Temp. | Humidity | Pressure | Rain* | Wind** | Luminosity | Snow |
|---|---|---|---|---|---|---|---|
| 1778054609 | 11.67° C | 97% | 1006.5 hPa | 2.29 mm | 1.79 m/s, 292° | - | - |
| 1778054296 | 11.67° C | 97% | 1006.5 hPa | 3.05 mm | 3.13 m/s, 322° | - | - |
| 1778054003 | 11.67° C | 97% | 1006.2 hPa | 4.06 mm | 1.79 m/s, 331° | - | - |
| 1778053700 | 11.67° C | 97% | 1006.1 hPa | 4.57 mm | 0.89 m/s, 323° | - | - |
| 1778053396 | 11.67° C | 96% | 1006 hPa | 5.33 mm | 2.24 m/s, 317° | - | - |
| 1778053168 | 12.22° C | 96% | 1006.1 hPa | 6.1 mm | 3.58 m/s, 329° | - | - |
| 1778053097 | 12.22° C | 96% | 1006.1 hPa | 6.1 mm | 3.58 m/s, 329° | - | - |
| 1778052909 | 13.89° C | 95% | 1005.6 hPa | 6.35 mm | 4.02 m/s, 302° | - | - |
| 1778052828 | 12.22° C | 96% | 1005.9 hPa | 6.1 mm | 3.58 m/s, 313° | - | - |
| 1778052795 | 12.22° C | 96% | 1005.9 hPa | 6.1 mm | 3.58 m/s, 313° | - | - |
| 1778052680 | 15° C | 96% | 1005.3 hPa | 6.6 mm | 3.58 m/s, 345° | - | - |
| 1778052494 | 12.78° C | 96% | 1005.7 hPa | 6.6 mm | 3.58 m/s, 306° | - | - |
| 1778052195 | 13.89° C | 95% | 1005.6 hPa | 6.35 mm | 4.02 m/s, 302° | - | - |
| 1778051894 | 15° C | 96% | 1005.3 hPa | 6.6 mm | 3.58 m/s, 345° | - | - |
| 1778051597 | 15.56° C | 96% | 1005.2 hPa | 6.86 mm | 0.89 m/s, 330° | - | - |
| 1778051305 | 15.56° C | 96% | 1005.3 hPa | 7.37 mm | 0 m/s | - | - |
| 1778051000 | 15.56° C | 96% | 1005.3 hPa | 7.37 mm | 0 m/s | - | - |
| 1778050692 | 15.56° C | 96% | 1005.2 hPa | 6.6 mm | 0.89 m/s, 275° | - | - |
| 1778050394 | 15.56° C | 96% | 1005.2 hPa | 6.35 mm | 0.89 m/s, 243° | - | - |
| 1778050092 | 15.56° C | 96% | 1005.2 hPa | 6.1 mm | 0 m/s | - | - |
| 1778049794 | 15.56° C | 96% | 1005.2 hPa | 5.59 mm | 0.89 m/s, 275° | - | - |
| 1778049491 | 15.56° C | 96% | 1005.2 hPa | 5.08 mm | 0 m/s | - | - |
| 1778049269 | 15.56° C | 96% | 1005.1 hPa | 5.33 mm | 0 m/s | - | - |
| 1778049196 | 15.56° C | 96% | 1005.1 hPa | 5.33 mm | 0 m/s | - | - |
| 1778048959 | 15.56° C | 96% | 1005.2 hPa | 5.08 mm | 0 m/s | - | - |
* Rain latest hour (hover to see other rain measurements)
** Current wind speed in m/s (hover to see current wind gust speed)